Terminal Aerodrome Forecast
Issued by NWS

Home | Current Version | Previous Version | Text Only | Print | Product List | Glossary On
Versions: 1 2 3 4 5 6 7 8 9 10 11 12 13
000
FTUS46 KMTR 282338
TAFOAK
TAF
KOAK 282338Z 2900/3006 29015G22KT P6SM SKC
     FM290300 28012KT P6SM SKC
     FM290800 31004KT P6SM SKC
     FM292100 28014G19KT P6SM SCT200
     FM300400 28010KT P6SM FEW012 SCT200=

USA.gov is the U.S. government's official web portal to all federal, state and local government web resources and services.